Airfield :
LOGIN :

Register | Disclaimer

   EN    FR    IT 

 










Legend :    VFR   Marginal VFR   IFR   Intensive IFR   Very Intensive IFR
Visi :
Ceiling :
>= 8 km
>= 3000ft
5 to 8 km
1000 to 3000 ft
1500m to 5 km
500 to 1000 ft
800 to 1500m
200 to 500 ft
< 800m
< 200 ft
Symbols :   Thunderstorms  Fog  Heavy snow  Heavy precipitations  Wind > 20 kt
SIGMETs :     Misc.  Thunderstorms  Icing  Turbulence  Mountain Waves  Volcanic Ashes







- Airport Elevation : 245 ft


ETHS - Fassberg

CURRENT METAR :
  • 141420Z 26010KT 9999 SCT009 BKN016 02/01 Q0989 WHT GRN TEMPO BLU

EXPIRED METARs :
  • 141320Z 26012KT 9999 FEW006 SCT009 BKN012 02/01 Q0989 RERA GRN GRN TEMPO BLU
  • 141300Z 26013G23KT 8000 SCT009 BKN014 02/01 Q0989 RERA GRN GRN TEMPO BLU
  • 141238Z 25013KT 5000 RADZ BR FEW006 SCT013 BKN022 03/01 Q0989 WHT BLU TEMPO GRN
  • 141220Z 26014KT 9999 SCT013 SCT021 03/01 Q0989 BLU+BLU+ TEMPO GRN
  • 141150Z 27014KT 9999 SCT011 BKN015 03/00 Q0989 WHT BLU TEMPO GRN

TAF AMD TAF ETHS
Valid from the 14 at 13:00 until the 14 at 21:00 UTC


141238Z 1413/1421 26015KT 4000 -DZRA SCT009 BKN013
TEMPO 1413/1421 27017G27KT 9999 NSW SCT013 BKN025
No reported NOTAMs for that airfield.



MET'MAP, your aeronautical weather chart ! - Copyright ORBIFLY December 2007 - Disclaimer

ORBIFLY MET'MAP TEAM :

Programming & Development : Alexandra Zaïnal
Concept & Development : Baudouin d'Aumeries
Co-Development & Prog : Marc-Olivier Méhu
Technical & hardware support : Manuel Goepfert

Contact : metmap@orbifly.com




SOURCES & CREDITS :

   NOAA